sensor_id;sensor_type;location;lat;lon;timestamp;temperature;humidity
528;DHT22;250;47.712;7.508;2022-09-17T00:01:26;15.00;29.00
528;DHT22;250;47.712;7.508;2022-09-17T00:03:55;14.90;28.50
528;DHT22;250;47.712;7.508;2022-09-17T00:06:24;14.90;28.70
528;DHT22;250;47.712;7.508;2022-09-17T00:08:52;14.90;28.70
528;DHT22;250;47.712;7.508;2022-09-17T00:11:22;14.80;28.90
528;DHT22;250;47.712;7.508;2022-09-17T00:13:51;14.80;29.20
528;DHT22;250;47.712;7.508;2022-09-17T00:16:25;14.70;29.30
528;DHT22;250;47.712;7.508;2022-09-17T00:18:52;14.80;29.40
528;DHT22;250;47.712;7.508;2022-09-17T00:21:19;14.70;29.30
528;DHT22;250;47.712;7.508;2022-09-17T00:23:47;14.70;29.30
528;DHT22;250;47.712;7.508;2022-09-17T00:26:14;14.70;29.30
528;DHT22;250;47.712;7.508;2022-09-17T00:28:41;14.70;29.00
528;DHT22;250;47.712;7.508;2022-09-17T00:31:14;14.70;29.30
528;DHT22;250;47.712;7.508;2022-09-17T00:33:41;14.80;29.20
528;DHT22;250;47.712;7.508;2022-09-17T00:36:08;14.80;28.80
528;DHT22;250;47.712;7.508;2022-09-17T00:38:36;14.80;29.30
528;DHT22;250;47.712;7.508;2022-09-17T00:41:04;14.80;29.30
528;DHT22;250;47.712;7.508;2022-09-17T00:43:38;14.80;30.40
528;DHT22;250;47.712;7.508;2022-09-17T00:46:11;14.70;29.30
528;DHT22;250;47.712;7.508;2022-09-17T00:48:44;14.80;29.40
528;DHT22;250;47.712;7.508;2022-09-17T00:51:14;14.80;29.60
528;DHT22;250;47.712;7.508;2022-09-17T00:53:43;14.70;29.40
528;DHT22;250;47.712;7.508;2022-09-17T00:56:17;14.80;29.40
528;DHT22;250;47.712;7.508;2022-09-17T00:58:45;14.80;29.40
528;DHT22;250;47.712;7.508;2022-09-17T01:01:13;14.80;30.30
528;DHT22;250;47.712;7.508;2022-09-17T01:03:40;14.70;31.00
528;DHT22;250;47.712;7.508;2022-09-17T01:06:14;14.70;30.80
528;DHT22;250;47.712;7.508;2022-09-17T01:08:53;14.60;31.70
528;DHT22;250;47.712;7.508;2022-09-17T01:11:39;14.60;32.00
528;DHT22;250;47.712;7.508;2022-09-17T01:14:18;14.60;31.10
528;DHT22;250;47.712;7.508;2022-09-17T01:16:54;14.50;32.20
528;DHT22;250;47.712;7.508;2022-09-17T01:22:33;14.60;31.80
528;DHT22;250;47.712;7.508;2022-09-17T01:25:19;14.60;30.30
528;DHT22;250;47.712;7.508;2022-09-17T01:28:13;14.60;31.60
528;DHT22;250;47.712;7.508;2022-09-17T01:31:04;14.60;29.90
528;DHT22;250;47.712;7.508;2022-09-17T01:33:39;14.60;30.10
528;DHT22;250;47.712;7.508;2022-09-17T01:36:21;14.50;31.10
528;DHT22;250;47.712;7.508;2022-09-17T01:38:56;14.40;30.30
528;DHT22;250;47.712;7.508;2022-09-17T01:41:31;14.50;29.20
528;DHT22;250;47.712;7.508;2022-09-17T01:44:03;14.50;29.10
528;DHT22;250;47.712;7.508;2022-09-17T01:46:37;14.60;29.00
528;DHT22;250;47.712;7.508;2022-09-17T01:49:07;14.60;28.20
528;DHT22;250;47.712;7.508;2022-09-17T01:51:37;14.60;28.40
528;DHT22;250;47.712;7.508;2022-09-17T01:54:09;14.50;29.10
528;DHT22;250;47.712;7.508;2022-09-17T01:56:41;14.50;28.40
528;DHT22;250;47.712;7.508;2022-09-17T01:59:14;14.50;28.00
528;DHT22;250;47.712;7.508;2022-09-17T02:01:45;14.50;27.70
528;DHT22;250;47.712;7.508;2022-09-17T02:04:18;14.50;27.60
528;DHT22;250;47.712;7.508;2022-09-17T02:06:54;14.60;26.80
528;DHT22;250;47.712;7.508;2022-09-17T02:09:25;14.50;27.70
528;DHT22;250;47.712;7.508;2022-09-17T02:11:56;14.40;28.30
528;DHT22;250;47.712;7.508;2022-09-17T02:14:27;14.50;28.60
528;DHT22;250;47.712;7.508;2022-09-17T02:16:59;14.40;28.40
528;DHT22;250;47.712;7.508;2022-09-17T02:19:30;14.40;28.30
528;DHT22;250;47.712;7.508;2022-09-17T02:22:02;14.20;28.30
528;DHT22;250;47.712;7.508;2022-09-17T02:24:35;14.20;28.90
528;DHT22;250;47.712;7.508;2022-09-17T02:27:07;14.20;28.90
528;DHT22;250;47.712;7.508;2022-09-17T02:29:41;14.20;29.50
528;DHT22;250;47.712;7.508;2022-09-17T02:32:11;14.20;29.20
528;DHT22;250;47.712;7.508;2022-09-17T02:34:38;14.10;28.90
528;DHT22;250;47.712;7.508;2022-09-17T02:37:06;14.20;29.30
528;DHT22;250;47.712;7.508;2022-09-17T02:39:33;14.20;29.70
528;DHT22;250;47.712;7.508;2022-09-17T02:42:06;14.20;29.90
528;DHT22;250;47.712;7.508;2022-09-17T02:44:45;14.10;30.50
528;DHT22;250;47.712;7.508;2022-09-17T02:47:35;14.30;29.60
528;DHT22;250;47.712;7.508;2022-09-17T02:50:17;14.30;29.50
528;DHT22;250;47.712;7.508;2022-09-17T02:53:01;14.30;29.50
528;DHT22;250;47.712;7.508;2022-09-17T02:55:36;14.30;29.50
528;DHT22;250;47.712;7.508;2022-09-17T02:58:15;14.30;29.90
528;DHT22;250;47.712;7.508;2022-09-17T03:00:46;14.30;29.60
528;DHT22;250;47.712;7.508;2022-09-17T03:03:20;14.40;29.60
528;DHT22;250;47.712;7.508;2022-09-17T03:05:48;14.40;28.80
528;DHT22;250;47.712;7.508;2022-09-17T03:08:17;14.40;27.80
528;DHT22;250;47.712;7.508;2022-09-17T03:10:46;14.30;27.60
528;DHT22;250;47.712;7.508;2022-09-17T03:13:14;14.30;27.50
528;DHT22;250;47.712;7.508;2022-09-17T03:15:41;14.40;26.80
528;DHT22;250;47.712;7.508;2022-09-17T03:18:08;14.20;27.00
528;DHT22;250;47.712;7.508;2022-09-17T03:20:37;14.20;27.60
528;DHT22;250;47.712;7.508;2022-09-17T03:23:04;14.20;27.40
528;DHT22;250;47.712;7.508;2022-09-17T03:25:31;14.20;27.20
528;DHT22;250;47.712;7.508;2022-09-17T03:27:58;14.10;27.80
528;DHT22;250;47.712;7.508;2022-09-17T03:30:25;14.10;27.60
528;DHT22;250;47.712;7.508;2022-09-17T03:32:52;14.20;26.50
528;DHT22;250;47.712;7.508;2022-09-17T03:35:19;14.10;26.60
528;DHT22;250;47.712;7.508;2022-09-17T03:37:47;14.10;26.50
528;DHT22;250;47.712;7.508;2022-09-17T03:40:14;14.00;26.50
528;DHT22;250;47.712;7.508;2022-09-17T03:42:42;13.90;26.90
528;DHT22;250;47.712;7.508;2022-09-17T03:45:09;14.00;26.50
528;DHT22;250;47.712;7.508;2022-09-17T03:47:37;14.00;26.50
528;DHT22;250;47.712;7.508;2022-09-17T03:50:05;13.90;26.70
528;DHT22;250;47.712;7.508;2022-09-17T03:52:32;14.00;26.50
528;DHT22;250;47.712;7.508;2022-09-17T03:55:01;13.90;26.60
528;DHT22;250;47.712;7.508;2022-09-17T03:57:28;13.80;26.40
528;DHT22;250;47.712;7.508;2022-09-17T03:59:55;13.80;26.30
528;DHT22;250;47.712;7.508;2022-09-17T04:02:22;13.70;26.70
528;DHT22;250;47.712;7.508;2022-09-17T04:04:49;13.70;27.20
528;DHT22;250;47.712;7.508;2022-09-17T04:07:17;13.70;26.60
528;DHT22;250;47.712;7.508;2022-09-17T04:09:44;13.60;26.70
528;DHT22;250;47.712;7.508;2022-09-17T04:12:12;13.60;26.90
528;DHT22;250;47.712;7.508;2022-09-17T04:14:39;13.60;26.90
528;DHT22;250;47.712;7.508;2022-09-17T04:17:06;13.60;26.90
528;DHT22;250;47.712;7.508;2022-09-17T04:19:33;13.60;27.00
528;DHT22;250;47.712;7.508;2022-09-17T04:22:00;13.50;27.40
528;DHT22;250;47.712;7.508;2022-09-17T04:24:27;13.50;27.70
528;DHT22;250;47.712;7.508;2022-09-17T04:26:54;13.50;27.70
528;DHT22;250;47.712;7.508;2022-09-17T04:29:23;13.60;28.20
528;DHT22;250;47.712;7.508;2022-09-17T04:31:50;13.60;28.20
528;DHT22;250;47.712;7.508;2022-09-17T04:34:17;13.60;27.80
528;DHT22;250;47.712;7.508;2022-09-17T04:36:44;13.60;28.20
528;DHT22;250;47.712;7.508;2022-09-17T04:39:12;13.50;28.10
528;DHT22;250;47.712;7.508;2022-09-17T04:41:38;13.50;28.30
528;DHT22;250;47.712;7.508;2022-09-17T04:44:06;13.60;28.30
528;DHT22;250;47.712;7.508;2022-09-17T04:46:34;13.50;28.40
528;DHT22;250;47.712;7.508;2022-09-17T04:49:01;13.50;28.40
528;DHT22;250;47.712;7.508;2022-09-17T04:51:28;13.50;28.50
528;DHT22;250;47.712;7.508;2022-09-17T04:53:55;13.60;28.20
528;DHT22;250;47.712;7.508;2022-09-17T04:56:22;13.60;28.50
528;DHT22;250;47.712;7.508;2022-09-17T04:58:49;13.50;28.40
528;DHT22;250;47.712;7.508;2022-09-17T05:01:16;13.60;28.50
528;DHT22;250;47.712;7.508;2022-09-17T05:03:45;13.60;27.90
528;DHT22;250;47.712;7.508;2022-09-17T05:06:12;13.60;28.50
528;DHT22;250;47.712;7.508;2022-09-17T05:08:39;13.60;28.50
528;DHT22;250;47.712;7.508;2022-09-17T05:11:06;13.50;29.20
528;DHT22;250;47.712;7.508;2022-09-17T05:13:33;13.60;28.50
528;DHT22;250;47.712;7.508;2022-09-17T05:16:00;13.60;28.50
528;DHT22;250;47.712;7.508;2022-09-17T05:18:27;13.60;28.20
528;DHT22;250;47.712;7.508;2022-09-17T05:20:56;13.50;28.20
528;DHT22;250;47.712;7.508;2022-09-17T05:23:23;13.40;28.40
528;DHT22;250;47.712;7.508;2022-09-17T05:25:50;13.30;28.30
528;DHT22;250;47.712;7.508;2022-09-17T05:28:17;13.30;28.30
528;DHT22;250;47.712;7.508;2022-09-17T05:30:44;13.30;28.90
528;DHT22;250;47.712;7.508;2022-09-17T05:33:11;13.40;28.30
528;DHT22;250;47.712;7.508;2022-09-17T05:35:38;13.30;28.90
528;DHT22;250;47.712;7.508;2022-09-17T05:38:07;13.30;29.40
528;DHT22;250;47.712;7.508;2022-09-17T05:40:34;13.30;29.00
528;DHT22;250;47.712;7.508;2022-09-17T05:43:04;13.30;29.20
528;DHT22;250;47.712;7.508;2022-09-17T05:45:32;13.40;28.40
528;DHT22;250;47.712;7.508;2022-09-17T05:48:01;13.30;28.90
528;DHT22;250;47.712;7.508;2022-09-17T05:50:28;13.30;29.00
528;DHT22;250;47.712;7.508;2022-09-17T05:52:56;13.40;28.60
528;DHT22;250;47.712;7.508;2022-09-17T05:55:24;13.40;28.80
528;DHT22;250;47.712;7.508;2022-09-17T05:57:52;13.50;28.40
528;DHT22;250;47.712;7.508;2022-09-17T06:00:19;13.50;29.00
528;DHT22;250;47.712;7.508;2022-09-17T06:02:46;13.60;27.60
528;DHT22;250;47.712;7.508;2022-09-17T06:05:19;13.50;28.50
528;DHT22;250;47.712;7.508;2022-09-17T06:07:46;13.60;27.40
528;DHT22;250;47.712;7.508;2022-09-17T06:10:13;13.60;27.70
528;DHT22;250;47.712;7.508;2022-09-17T06:12:41;13.50;27.70
528;DHT22;250;47.712;7.508;2022-09-17T06:15:09;13.50;27.80
528;DHT22;250;47.712;7.508;2022-09-17T06:17:40;13.50;27.90
528;DHT22;250;47.712;7.508;2022-09-17T06:20:08;13.40;28.30
528;DHT22;250;47.712;7.508;2022-09-17T06:22:35;13.50;28.40
528;DHT22;250;47.712;7.508;2022-09-17T06:25:03;13.40;28.40
528;DHT22;250;47.712;7.508;2022-09-17T06:27:31;13.60;27.80
528;DHT22;250;47.712;7.508;2022-09-17T06:30:00;13.50;27.80
528;DHT22;250;47.712;7.508;2022-09-17T06:32:27;13.50;27.20
528;DHT22;250;47.712;7.508;2022-09-17T06:34:54;13.50;27.70
528;DHT22;250;47.712;7.508;2022-09-17T06:37:26;13.50;27.30
528;DHT22;250;47.712;7.508;2022-09-17T06:39:53;13.50;27.50
528;DHT22;250;47.712;7.508;2022-09-17T06:42:20;13.60;28.10
528;DHT22;250;47.712;7.508;2022-09-17T06:44:48;13.60;27.80
528;DHT22;250;47.712;7.508;2022-09-17T06:47:16;13.70;27.50
528;DHT22;250;47.712;7.508;2022-09-17T06:49:43;13.70;27.70
528;DHT22;250;47.712;7.508;2022-09-17T06:52:10;13.70;27.00
528;DHT22;250;47.712;7.508;2022-09-17T06:54:37;13.70;26.80
528;DHT22;250;47.712;7.508;2022-09-17T06:57:05;13.70;26.70
528;DHT22;250;47.712;7.508;2022-09-17T06:59:32;13.60;27.10
528;DHT22;250;47.712;7.508;2022-09-17T07:01:59;13.70;26.40
528;DHT22;250;47.712;7.508;2022-09-17T07:04:27;13.70;26.60
528;DHT22;250;47.712;7.508;2022-09-17T07:06:54;13.70;26.90
528;DHT22;250;47.712;7.508;2022-09-17T07:09:21;13.70;26.30
528;DHT22;250;47.712;7.508;2022-09-17T07:11:48;13.70;26.60
528;DHT22;250;47.712;7.508;2022-09-17T07:14:15;13.70;26.00
528;DHT22;250;47.712;7.508;2022-09-17T07:16:43;13.70;26.50
528;DHT22;250;47.712;7.508;2022-09-17T07:19:10;13.80;26.70
528;DHT22;250;47.712;7.508;2022-09-17T07:21:39;13.90;26.60
528;DHT22;250;47.712;7.508;2022-09-17T07:24:06;13.90;25.20
528;DHT22;250;47.712;7.508;2022-09-17T07:26:33;13.90;25.60
528;DHT22;250;47.712;7.508;2022-09-17T07:29:00;13.90;25.60
528;DHT22;250;47.712;7.508;2022-09-17T07:31:27;14.00;24.70
528;DHT22;250;47.712;7.508;2022-09-17T07:33:54;14.10;24.30
528;DHT22;250;47.712;7.508;2022-09-17T07:36:21;14.10;23.50
528;DHT22;250;47.712;7.508;2022-09-17T07:38:49;14.00;23.80
528;DHT22;250;47.712;7.508;2022-09-17T07:41:16;14.00;24.90
528;DHT22;250;47.712;7.508;2022-09-17T07:43:44;14.00;24.90
528;DHT22;250;47.712;7.508;2022-09-17T07:46:13;14.10;24.90
528;DHT22;250;47.712;7.508;2022-09-17T07:48:41;14.20;25.00
528;DHT22;250;47.712;7.508;2022-09-17T07:51:14;14.20;24.40
528;DHT22;250;47.712;7.508;2022-09-17T07:53:41;14.20;24.80
528;DHT22;250;47.712;7.508;2022-09-17T07:56:09;14.40;23.50
528;DHT22;250;47.712;7.508;2022-09-17T07:58:36;14.40;23.20
528;DHT22;250;47.712;7.508;2022-09-17T08:01:04;14.40;23.10
528;DHT22;250;47.712;7.508;2022-09-17T08:03:32;14.50;23.90
528;DHT22;250;47.712;7.508;2022-09-17T08:06:04;14.50;23.70
528;DHT22;250;47.712;7.508;2022-09-17T08:08:31;14.60;22.80
528;DHT22;250;47.712;7.508;2022-09-17T08:11:02;14.60;21.70
528;DHT22;250;47.712;7.508;2022-09-17T08:13:32;14.50;22.10
528;DHT22;250;47.712;7.508;2022-09-17T08:15:59;14.50;22.90
528;DHT22;250;47.712;7.508;2022-09-17T08:18:26;14.50;21.90
528;DHT22;250;47.712;7.508;2022-09-17T08:20:58;14.50;21.30
528;DHT22;250;47.712;7.508;2022-09-17T08:23:26;14.60;21.30
528;DHT22;250;47.712;7.508;2022-09-17T08:25:55;14.50;21.30
528;DHT22;250;47.712;7.508;2022-09-17T08:28:24;14.60;21.60
528;DHT22;250;47.712;7.508;2022-09-17T08:30:53;14.70;21.60
528;DHT22;250;47.712;7.508;2022-09-17T08:33:22;14.80;21.40
528;DHT22;250;47.712;7.508;2022-09-17T08:35:52;14.80;20.50
528;DHT22;250;47.712;7.508;2022-09-17T08:38:20;14.80;21.30
528;DHT22;250;47.712;7.508;2022-09-17T08:40:58;14.70;21.40
528;DHT22;250;47.712;7.508;2022-09-17T08:43:27;14.70;21.30
528;DHT22;250;47.712;7.508;2022-09-17T08:45:57;14.70;20.90
528;DHT22;250;47.712;7.508;2022-09-17T08:48:30;14.60;21.30
528;DHT22;250;47.712;7.508;2022-09-17T08:51:01;14.70;21.40
528;DHT22;250;47.712;7.508;2022-09-17T08:53:39;14.60;21.90
528;DHT22;250;47.712;7.508;2022-09-17T08:56:12;14.60;22.30
528;DHT22;250;47.712;7.508;2022-09-17T08:58:47;14.50;22.10
528;DHT22;250;47.712;7.508;2022-09-17T09:01:32;14.60;21.90
528;DHT22;250;47.712;7.508;2022-09-17T09:06:59;14.50;22.60
528;DHT22;250;47.712;7.508;2022-09-17T09:09:33;14.50;22.40
528;DHT22;250;47.712;7.508;2022-09-17T09:12:04;14.60;22.10
528;DHT22;250;47.712;7.508;2022-09-17T09:14:34;14.60;22.10
528;DHT22;250;47.712;7.508;2022-09-17T09:17:07;14.60;22.80
528;DHT22;250;47.712;7.508;2022-09-17T09:19:40;14.70;22.80
528;DHT22;250;47.712;7.508;2022-09-17T09:22:19;14.80;22.80
528;DHT22;250;47.712;7.508;2022-09-17T09:24:58;14.90;21.50
528;DHT22;250;47.712;7.508;2022-09-17T09:27:32;14.80;21.40
528;DHT22;250;47.712;7.508;2022-09-17T09:30:05;14.80;21.40
528;DHT22;250;47.712;7.508;2022-09-17T09:32:44;14.70;21.40
528;DHT22;250;47.712;7.508;2022-09-17T09:35:17;14.60;21.30
528;DHT22;250;47.712;7.508;2022-09-17T09:37:50;14.60;22.70
528;DHT22;250;47.712;7.508;2022-09-17T09:40:35;14.50;22.40
528;DHT22;250;47.712;7.508;2022-09-17T09:43:13;14.60;22.30
528;DHT22;250;47.712;7.508;2022-09-17T09:45:53;14.60;22.60
528;DHT22;250;47.712;7.508;2022-09-17T09:48:32;14.60;22.20
528;DHT22;250;47.712;7.508;2022-09-17T09:51:15;14.50;22.70
528;DHT22;250;47.712;7.508;2022-09-17T09:53:58;14.60;23.00
528;DHT22;250;47.712;7.508;2022-09-17T09:56:47;14.60;22.40
528;DHT22;250;47.712;7.508;2022-09-17T09:59:17;14.50;23.20
528;DHT22;250;47.712;7.508;2022-09-17T10:01:44;14.70;23.00
528;DHT22;250;47.712;7.508;2022-09-17T10:04:17;14.70;22.40
528;DHT22;250;47.712;7.508;2022-09-17T10:06:46;14.70;22.40
528;DHT22;250;47.712;7.508;2022-09-17T10:09:15;14.80;23.10
528;DHT22;250;47.712;7.508;2022-09-17T10:11:42;14.80;22.40
528;DHT22;250;47.712;7.508;2022-09-17T10:14:26;14.70;22.20
528;DHT22;250;47.712;7.508;2022-09-17T10:17:13;14.60;23.80
528;DHT22;250;47.712;7.508;2022-09-17T10:19:43;14.60;22.70
528;DHT22;250;47.712;7.508;2022-09-17T10:22:22;14.70;22.60
528;DHT22;250;47.712;7.508;2022-09-17T10:24:51;14.80;21.50
528;DHT22;250;47.712;7.508;2022-09-17T10:27:20;14.80;21.90
528;DHT22;250;47.712;7.508;2022-09-17T10:29:51;14.90;21.50
528;DHT22;250;47.712;7.508;2022-09-17T10:32:22;14.90;21.50
528;DHT22;250;47.712;7.508;2022-09-17T10:34:59;15.00;21.60
528;DHT22;250;47.712;7.508;2022-09-17T10:37:41;15.00;22.50
528;DHT22;250;47.712;7.508;2022-09-17T10:40:25;15.20;22.30
528;DHT22;250;47.712;7.508;2022-09-17T10:43:17;15.20;21.80
528;DHT22;250;47.712;7.508;2022-09-17T10:45:51;15.30;21.80
528;DHT22;250;47.712;7.508;2022-09-17T10:48:20;15.20;21.80
528;DHT22;250;47.712;7.508;2022-09-17T10:50:52;15.10;21.30
528;DHT22;250;47.712;7.508;2022-09-17T10:53:20;15.10;22.30
528;DHT22;250;47.712;7.508;2022-09-17T10:55:54;15.30;23.00
528;DHT22;250;47.712;7.508;2022-09-17T10:58:31;15.40;21.40
528;DHT22;250;47.712;7.508;2022-09-17T11:01:09;15.30;20.30
528;DHT22;250;47.712;7.508;2022-09-17T11:03:48;15.40;20.40
528;DHT22;250;47.712;7.508;2022-09-17T11:06:49;15.50;20.50
528;DHT22;250;47.712;7.508;2022-09-17T11:09:29;15.60;20.30
528;DHT22;250;47.712;7.508;2022-09-17T11:12:17;15.70;20.80
528;DHT22;250;47.712;7.508;2022-09-17T11:14:55;15.70;19.80
528;DHT22;250;47.712;7.508;2022-09-17T11:20:39;15.70;18.60
528;DHT22;250;47.712;7.508;2022-09-17T11:23:36;15.70;18.90
528;DHT22;250;47.712;7.508;2022-09-17T11:26:18;15.70;18.90
528;DHT22;250;47.712;7.508;2022-09-17T11:28:54;15.70;18.30
528;DHT22;250;47.712;7.508;2022-09-17T11:31:33;15.70;18.60
528;DHT22;250;47.712;7.508;2022-09-17T11:34:21;15.60;19.10
528;DHT22;250;47.712;7.508;2022-09-17T11:36:55;15.80;18.50
528;DHT22;250;47.712;7.508;2022-09-17T11:39:32;15.80;18.30
528;DHT22;250;47.712;7.508;2022-09-17T11:42:01;15.90;18.50
528;DHT22;250;47.712;7.508;2022-09-17T11:44:37;15.70;19.40
528;DHT22;250;47.712;7.508;2022-09-17T11:47:09;15.80;19.00
528;DHT22;250;47.712;7.508;2022-09-17T11:49:43;15.70;19.20
528;DHT22;250;47.712;7.508;2022-09-17T11:52:17;15.80;18.70
528;DHT22;250;47.712;7.508;2022-09-17T11:54:51;15.80;19.30
528;DHT22;250;47.712;7.508;2022-09-17T11:57:24;15.90;19.20
528;DHT22;250;47.712;7.508;2022-09-17T11:59:56;15.80;19.40
528;DHT22;250;47.712;7.508;2022-09-17T12:02:36;15.90;19.90
528;DHT22;250;47.712;7.508;2022-09-17T12:05:07;16.00;19.60
528;DHT22;250;47.712;7.508;2022-09-17T12:07:42;16.00;20.50
528;DHT22;250;47.712;7.508;2022-09-17T12:13:22;15.70;21.00
528;DHT22;250;47.712;7.508;2022-09-17T12:16:05;15.50;23.30
528;DHT22;250;47.712;7.508;2022-09-17T12:18:44;15.40;23.40
528;DHT22;250;47.712;7.508;2022-09-17T12:21:15;15.30;23.30
528;DHT22;250;47.712;7.508;2022-09-17T12:23:47;15.20;23.50
528;DHT22;250;47.712;7.508;2022-09-17T12:26:30;15.10;23.80
528;DHT22;250;47.712;7.508;2022-09-17T12:29:04;15.00;25.30
528;DHT22;250;47.712;7.508;2022-09-17T12:31:39;14.90;25.50
528;DHT22;250;47.712;7.508;2022-09-17T12:34:25;14.90;26.50
528;DHT22;250;47.712;7.508;2022-09-17T12:37:02;14.90;26.70
528;DHT22;250;47.712;7.508;2022-09-17T12:39:54;14.90;27.40
528;DHT22;250;47.712;7.508;2022-09-17T12:42:34;15.00;26.60
528;DHT22;250;47.712;7.508;2022-09-17T12:45:15;15.20;27.40
528;DHT22;250;47.712;7.508;2022-09-17T12:48:14;15.30;26.60
528;DHT22;250;47.712;7.508;2022-09-17T12:50:55;15.40;26.30
528;DHT22;250;47.712;7.508;2022-09-17T12:53:29;15.60;24.20
528;DHT22;250;47.712;7.508;2022-09-17T12:56:22;15.70;24.20
528;DHT22;250;47.712;7.508;2022-09-17T12:59:06;15.80;23.20
528;DHT22;250;47.712;7.508;2022-09-17T13:01:40;15.90;22.00
528;DHT22;250;47.712;7.508;2022-09-17T13:07:15;16.00;20.80
528;DHT22;250;47.712;7.508;2022-09-17T13:10:08;16.10;20.70
528;DHT22;250;47.712;7.508;2022-09-17T13:12:41;16.10;18.90
528;DHT22;250;47.712;7.508;2022-09-17T13:15:40;16.10;18.60
528;DHT22;250;47.712;7.508;2022-09-17T13:18:16;16.10;18.80
528;DHT22;250;47.712;7.508;2022-09-17T13:20:57;16.00;18.00
528;DHT22;250;47.712;7.508;2022-09-17T13:23:35;15.90;17.60
528;DHT22;250;47.712;7.508;2022-09-17T13:26:04;15.90;18.20
528;DHT22;250;47.712;7.508;2022-09-17T13:28:42;15.80;18.10
528;DHT22;250;47.712;7.508;2022-09-17T13:31:11;15.80;18.80
528;DHT22;250;47.712;7.508;2022-09-17T13:33:53;15.90;18.50
528;DHT22;250;47.712;7.508;2022-09-17T13:36:38;16.10;17.40
528;DHT22;250;47.712;7.508;2022-09-17T13:39:08;16.30;18.50
528;DHT22;250;47.712;7.508;2022-09-17T13:41:37;16.30;17.80
528;DHT22;250;47.712;7.508;2022-09-17T13:44:05;16.30;18.00
528;DHT22;250;47.712;7.508;2022-09-17T13:46:35;16.30;18.50
528;DHT22;250;47.712;7.508;2022-09-17T13:49:06;16.30;17.30
528;DHT22;250;47.712;7.508;2022-09-17T13:51:58;16.30;17.40
528;DHT22;250;47.712;7.508;2022-09-17T13:54:36;16.40;17.10
528;DHT22;250;47.712;7.508;2022-09-17T13:57:10;16.50;16.60
528;DHT22;250;47.712;7.508;2022-09-17T13:59:51;16.60;16.80
528;DHT22;250;47.712;7.508;2022-09-17T14:02:32;16.60;17.10
528;DHT22;250;47.712;7.508;2022-09-17T14:05:30;16.70;17.30
528;DHT22;250;47.712;7.508;2022-09-17T14:08:27;16.60;16.60
528;DHT22;250;47.712;7.508;2022-09-17T14:11:00;16.60;16.20
528;DHT22;250;47.712;7.508;2022-09-17T14:13:39;16.60;16.70
528;DHT22;250;47.712;7.508;2022-09-17T14:16:34;16.60;16.90
528;DHT22;250;47.712;7.508;2022-09-17T14:19:24;16.70;16.10
528;DHT22;250;47.712;7.508;2022-09-17T14:21:59;16.90;16.30
528;DHT22;250;47.712;7.508;2022-09-17T14:24:35;16.80;15.40
528;DHT22;250;47.712;7.508;2022-09-17T14:30:05;16.60;15.30
528;DHT22;250;47.712;7.508;2022-09-17T14:32:38;16.40;16.00
528;DHT22;250;47.712;7.508;2022-09-17T14:35:16;16.50;16.00
528;DHT22;250;47.712;7.508;2022-09-17T14:37:49;16.40;15.90
528;DHT22;250;47.712;7.508;2022-09-17T14:40:19;16.40;15.90
528;DHT22;250;47.712;7.508;2022-09-17T14:42:49;16.40;16.40
528;DHT22;250;47.712;7.508;2022-09-17T14:45:23;16.40;16.10
528;DHT22;250;47.712;7.508;2022-09-17T14:48:18;16.40;15.80
528;DHT22;250;47.712;7.508;2022-09-17T14:50:47;16.40;16.30
528;DHT22;250;47.712;7.508;2022-09-17T14:53:16;16.40;16.50
528;DHT22;250;47.712;7.508;2022-09-17T14:55:46;16.40;15.80
528;DHT22;250;47.712;7.508;2022-09-17T14:58:30;16.50;16.20
528;DHT22;250;47.712;7.508;2022-09-17T15:00:58;16.60;16.00
528;DHT22;250;47.712;7.508;2022-09-17T15:03:26;16.70;15.20
528;DHT22;250;47.712;7.508;2022-09-17T15:05:54;16.70;16.00
528;DHT22;250;47.712;7.508;2022-09-17T15:08:23;16.80;15.90
528;DHT22;250;47.712;7.508;2022-09-17T15:10:53;16.90;15.30
528;DHT22;250;47.712;7.508;2022-09-17T15:13:25;16.70;15.70
528;DHT22;250;47.712;7.508;2022-09-17T15:16:00;16.70;15.70
528;DHT22;250;47.712;7.508;2022-09-17T15:18:35;16.60;15.70
528;DHT22;250;47.712;7.508;2022-09-17T15:21:10;16.60;15.90
528;DHT22;250;47.712;7.508;2022-09-17T15:23:41;16.40;16.20
528;DHT22;250;47.712;7.508;2022-09-17T15:26:08;16.40;16.50
528;DHT22;250;47.712;7.508;2022-09-17T15:28:40;16.50;16.50
528;DHT22;250;47.712;7.508;2022-09-17T15:31:14;16.40;16.10
528;DHT22;250;47.712;7.508;2022-09-17T15:33:42;16.20;16.60
528;DHT22;250;47.712;7.508;2022-09-17T15:36:20;16.20;16.50
528;DHT22;250;47.712;7.508;2022-09-17T15:38:48;16.20;16.40
528;DHT22;250;47.712;7.508;2022-09-17T15:41:29;16.10;16.80
528;DHT22;250;47.712;7.508;2022-09-17T15:44:12;16.00;16.90
528;DHT22;250;47.712;7.508;2022-09-17T15:46:40;15.90;17.60
528;DHT22;250;47.712;7.508;2022-09-17T15:49:31;16.00;17.10
528;DHT22;250;47.712;7.508;2022-09-17T15:52:24;16.00;17.40
528;DHT22;250;47.712;7.508;2022-09-17T15:54:52;15.90;17.60
528;DHT22;250;47.712;7.508;2022-09-17T15:57:21;16.00;17.30
528;DHT22;250;47.712;7.508;2022-09-17T15:59:49;16.00;17.40
528;DHT22;250;47.712;7.508;2022-09-17T16:02:25;16.00;17.50
528;DHT22;250;47.712;7.508;2022-09-17T16:08:16;15.90;18.20
528;DHT22;250;47.712;7.508;2022-09-17T16:10:43;15.80;17.50
528;DHT22;250;47.712;7.508;2022-09-17T16:13:10;15.70;17.50
528;DHT22;250;47.712;7.508;2022-09-17T16:15:38;15.70;18.00
528;DHT22;250;47.712;7.508;2022-09-17T16:18:11;15.80;18.00
528;DHT22;250;47.712;7.508;2022-09-17T16:20:38;15.80;17.30
528;DHT22;250;47.712;7.508;2022-09-17T16:23:06;15.80;17.50
528;DHT22;250;47.712;7.508;2022-09-17T16:25:33;15.90;17.20
528;DHT22;250;47.712;7.508;2022-09-17T16:28:05;15.80;17.50
528;DHT22;250;47.712;7.508;2022-09-17T16:30:34;15.80;17.60
528;DHT22;250;47.712;7.508;2022-09-17T16:33:01;15.90;16.90
528;DHT22;250;47.712;7.508;2022-09-17T16:35:31;16.00;16.90
528;DHT22;250;47.712;7.508;2022-09-17T16:37:58;15.90;17.00
528;DHT22;250;47.712;7.508;2022-09-17T16:40:27;15.80;17.30
528;DHT22;250;47.712;7.508;2022-09-17T16:42:54;15.80;17.20
528;DHT22;250;47.712;7.508;2022-09-17T16:45:21;15.80;17.70
528;DHT22;250;47.712;7.508;2022-09-17T16:47:48;15.70;17.60
528;DHT22;250;47.712;7.508;2022-09-17T16:50:16;15.70;17.60
528;DHT22;250;47.712;7.508;2022-09-17T16:52:44;15.70;17.60
528;DHT22;250;47.712;7.508;2022-09-17T16:55:13;15.60;18.00
528;DHT22;250;47.712;7.508;2022-09-17T16:57:42;15.50;17.90
528;DHT22;250;47.712;7.508;2022-09-17T17:00:11;15.50;17.90
528;DHT22;250;47.712;7.508;2022-09-17T17:02:39;15.50;18.10
528;DHT22;250;47.712;7.508;2022-09-17T17:05:07;15.60;18.10
528;DHT22;250;47.712;7.508;2022-09-17T17:07:35;15.60;18.00
528;DHT22;250;47.712;7.508;2022-09-17T17:10:03;15.50;18.70
528;DHT22;250;47.712;7.508;2022-09-17T17:12:30;15.50;18.90
528;DHT22;250;47.712;7.508;2022-09-17T17:14:58;15.50;18.90
528;DHT22;250;47.712;7.508;2022-09-17T17:17:26;15.50;19.00
528;DHT22;250;47.712;7.508;2022-09-17T17:19:54;15.50;19.00
528;DHT22;250;47.712;7.508;2022-09-17T17:22:21;15.40;19.30
528;DHT22;250;47.712;7.508;2022-09-17T17:24:48;15.40;19.60
528;DHT22;250;47.712;7.508;2022-09-17T17:27:15;15.40;20.00
528;DHT22;250;47.712;7.508;2022-09-17T17:29:42;15.40;19.80